Latest Coastal Weather Observations for Croker Island Airport

IDD60701

Issued at 4:51 am CST Wednesday 25 January 2017 (issued every 10 minutes, with the page automatically refreshed every 10 minutes)

About coastal observations | Map of coastal stations | Coastal observations for NT | Marine services | Other Formats
Station Details ID: 014308 Name: CROKER ISLAND AIRPORT Lat: -11.16 Lon: 132.48 Height: 9.2 m
Data from the previous 72 hours. | See also: Recent months at Croker Island Airport
Date/Time
CST
Temp
°C
Wind Pressure Rain since
9am
mm
Weather Cloud Vis
km
Sea
Height
m
Swell
Dir  Spd
kts
Gust
kts
hPa Trend Height
m
Period
s
Dir
25/04:30am 25.9 WNW 8 11 1006.9 - 10.4 - - - - - - -
25/04:09am 24.8 WNW 17 30 1007.2 - 9.8 - - - - - - -
25/04:05am 26.6 WNW 13 30 1007.1 - 8.8 - - - - - - -
25/04:00am 28.1 WNW 10 16 1007.0 - 8.8 - - - - - - -
25/03:30am 28.0 WNW 11 17 1006.9 - 8.8 - - - - - - -
25/03:00am 28.0 WNW 11 17 1007.1 - 8.8 - - - - - - -
25/02:30am 28.2 WNW 14 20 1007.2 - 8.8 - - - - - - -
25/02:00am 28.2 WNW 13 18 1007.6 - 8.8 - - - - - - -
25/01:30am 28.1 WNW 13 19 1007.9 - 8.8 - - - - - - -
25/01:00am 27.8 WNW 10 14 1008.1 - 8.8 - - - - - - -
25/12:30am 27.5 WNW 10 15 1008.4 - 8.8 - - - - - - -
25/12:00am 27.3 WNW 10 16 1008.6 - 8.8 Rain - - - - - -
 
Date/Time
CST
Temp
°C
Wind Pressure Rain since
9am
mm
Weather Cloud Vis
km
Sea
Height
m
Swell
Dir  Spd
kts
Gust
kts
hPa Trend Height
m
Period
s
Dir
24/11:30pm 26.3 W 9 12 1008.7 - 8.6 - - - - - - -
24/11:00pm 25.9 WSW 10 14 1008.6 - 8.6 - - - - - - -
24/10:30pm 25.2 W 14 19 1009.1 - 8.6 - - - - - - -
24/10:00pm 25.9 WNW 13 20 1009.5 - 6.0 - - - - - - -
24/09:30pm 25.7 W 14 20 1009.1 - 4.2 - - - - - - -
24/09:02pm 26.4 WSW 15 26 1008.9 - 2.6 - - - - - - -
24/09:00pm 26.6 WSW 14 18 1008.7 - 2.4 Rain - - - - - -
24/08:30pm 28.1 WNW 13 18 1007.8 - 1.0 - - - - - - -
24/08:00pm 27.4 WNW 10 15 1007.5 - 1.0 - - - - - - -
24/07:30pm 27.2 WNW 14 20 1007.2 - 1.0 - - - - - - -
24/07:00pm 27.5 WNW 15 23 1006.4 - 1.0 - - - - - - -
24/06:30pm 27.9 WNW 17 24 1006.5 - 1.0 - - - - - - -
24/06:00pm 28.4 WNW 22 31 1006.4 - 1.0 - - - - - - -
24/05:30pm 28.3 WNW 18 29 1006.1 - 1.0 - - - - - - -
24/05:28pm 28.2 WNW 17 29 1006.1 - 1.0 - - - - - - -
24/05:00pm 28.6 W 16 23 1005.6 - 1.0 - - - - - - -
24/04:30pm 28.2 WNW 12 18 1005.4 - 1.0 - - - - - - -
24/04:00pm 28.0 WNW 12 18 1005.9 - 1.0 - - - - - - -
24/03:30pm 28.2 W 13 17 1006.1 - 1.0 - - - - - - -
24/03:00pm 27.7 W 15 21 1006.5 - 1.0 - - - - - - -
24/02:30pm 27.9 WNW 15 23 1006.7 - 1.0 - - - - - - -
24/02:00pm 27.6 WNW 14 25 1007.2 - 1.0 - - - - - - -
24/01:52pm 28.3 WNW 15 25 1007.3 - 1.0 - - - - - - -
24/01:30pm 28.9 W 10 14 1007.3 - 1.0 - - - - - - -
24/01:00pm 28.0 W 11 15 1007.3 - 0.8 - - - - - - -
24/12:30pm 27.4 W 13 19 1007.4 - 0.8 - - - - - - -
24/12:00pm 27.9 W 14 19 1008.1 - 0.8 - - - - - - -
24/11:30am 27.9 WSW 15 21 1008.4 - 0.8 - - - - - - -
24/11:00am 27.4 W 14 20 1008.5 - 0.8 - - - - - - -
24/10:30am 26.8 W 13 17 1008.6 - 0.8 - - - - - - -
24/10:00am 25.9 W 16 21 1008.9 - 0.8 - - - - - - -
24/09:30am 26.3 W 15 20 1008.8 - 0.0 - - - - - - -
24/09:00am 26.6 W 17 22 1008.6 - 9.6 - - - - - - -
24/08:30am 26.5 W 16 24 1008.2 - 9.6 - - - - - - -
24/08:00am 26.4 W 14 19 1007.9 - 9.6 - - - - - - -
24/07:30am 26.5 W 17 24 1007.8 - 9.6 - - - - - - -
24/07:00am 26.6 W 17 26 1007.2 - 9.6 - - - - - - -
24/06:32am 27.3 W 18 28 1007.1 - 9.6 - - - - - - -
24/06:30am 27.3 W 18 26 1007.1 - 9.6 - - - - - - -
24/06:00am 27.1 W 15 20 1006.9 - 9.6 - - - - - - -
24/05:30am 26.1 WNW 19 25 1006.7 - 9.6 - - - - - - -
24/05:00am 26.0 WNW 16 24 1006.5 - 9.6 - - - - - - -
24/04:35am 25.2 WNW 20 30 1006.8 - 9.6 - - - - - - -
24/04:30am 25.1 WNW 22 31 1006.7 - 9.6 - - - - - - -
24/04:00am 25.0 WNW 23 31 1006.7 - 9.2 - - - - - - -
24/03:34am 26.4 WNW 19 32 1006.6 - 8.6 - - - - - - -
24/03:30am 26.5 WNW 18 28 1006.4 - 8.6 - - - - - - -
24/03:23am 26.3 WNW 17 27 1006.4 - 8.6 - - - - - - -
24/03:00am 26.0 WNW 14 23 1006.5 - 8.6 Recent precip. - - - - - -
24/02:30am 24.7 NW 17 26 1007.0 - 8.6 - - - - - - -
24/02:06am 25.3 WNW 18 29 1007.2 - 8.4 - - - - - - -
24/02:00am 26.1 NW 14 29 1007.3 - 8.2 - - - - - - -
24/01:30am 27.1 NW 9 15 1007.2 - 8.2 - - - - - - -
24/01:00am 26.9 NW 12 19 1007.7 - 8.2 - - - - - - -
24/12:30am 26.2 NW 13 21 1008.3 - 8.2 - - - - - - -
24/12:00am 26.8 NW 14 22 1008.7 - 8.2 - - - - - - -
 
Date/Time
CST
Temp
°C
Wind Pressure Rain since
9am
mm
Weather Cloud Vis
km
Sea
Height
m
Swell
Dir  Spd
kts
Gust
kts
hPa Trend Height
m
Period
s
Dir
23/11:30pm 27.9 WNW 10 14 1008.8 - 8.2 - - - - - - -
23/11:00pm 27.6 WNW 8 13 1008.9 - 8.2 - - - - - - -
23/10:30pm 27.6 WNW 8 11 1008.7 - 8.2 - - - - - - -
23/10:00pm 27.7 W 10 15 1008.6 - 8.2 - - - - - - -
23/09:30pm 27.6 W 10 15 1008.2 - 8.2 - - - - - - -
23/09:00pm 27.6 W 11 14 1007.6 - 8.2 - - - - - - -
23/08:30pm 27.5 W 10 13 1007.5 - 8.2 - - - - - - -
23/08:00pm 27.5 W 11 15 1007.1 - 8.2 - - - - - - -
23/07:30pm 27.8 W 14 20 1006.8 - 8.2 - - - - - - -
23/07:00pm 27.9 W 13 18 1006.4 - 8.2 - - - - - - -
23/06:30pm 28.1 W 12 17 1005.8 - 8.2 - - - - - - -
23/06:00pm 28.4 W 14 19 1005.1 - 8.2 - - - - - - -
23/05:30pm 28.5 W 14 19 1004.8 - 8.2 - - - - - - -
23/05:00pm 28.8 W 12 17 1004.9 - 8.2 - - - - - - -
23/04:30pm 28.3 W 16 22 1005.2 - 8.2 - - - - - - -
23/04:00pm 28.4 W 14 19 1005.2 - 8.2 - - - - - - -
23/03:30pm 28.3 W 15 21 1005.3 - 8.2 - - - - - - -
23/03:00pm 28.3 W 14 22 1005.4 - 8.2 Recent precip. - - - - - -
23/02:30pm 28.3 W 14 20 1005.7 - 8.2 - - - - - - -
23/02:00pm 28.6 W 14 20 1006.1 - 8.0 - - - - - - -
23/01:30pm 27.6 W 12 17 1006.5 - 8.0 - - - - - - -
23/01:00pm 26.6 W 14 19 1006.9 - 8.0 - - - - - - -
23/12:30pm 25.9 W 14 20 1007.3 - 8.0 - - - - - - -
23/12:00pm 26.2 W 14 20 1007.6 - 8.0 Recent precip. - - - - - -
23/11:30am 26.1 W 16 24 1007.9 - 8.0 - - - - - - -
23/11:00am 25.7 W 12 19 1008.3 - 7.8 - - - - - - -
23/10:30am 25.0 W 12 17 1008.8 - 7.6 - - - - - - -
23/10:00am 25.2 WSW 15 19 1009.1 - 6.6 - - - - - - -
23/09:30am 25.1 WSW 19 28 1009.0 - 4.4 - - - - - - -
23/09:22am 25.4 SW 16 28 1008.9 - 0.8 - - - - - - -
23/09:00am 26.9 WSW 12 17 1008.5 - 75.8 - - - - - - -
23/08:30am 26.9 W 15 20 1008.0 - 75.8 - - - - - - -
23/08:00am 27.2 W 15 20 1007.6 - 75.8 - - - - - - -
23/07:30am 27.2 W 14 20 1007.2 - 75.6 - - - - - - -
23/07:00am 26.9 W 15 23 1007.0 - 75.0 - - - - - - -
23/06:30am 26.8 W 19 26 1006.7 - 74.8 - - - - - - -
23/06:00am 27.0 WNW 15 22 1006.0 - 74.4 Rain - - - - - -
23/05:30am 27.3 WNW 13 20 1005.7 - 73.8 - - - - - - -
23/05:00am 27.2 WNW 14 22 1005.7 - 73.8 - - - - - - -
23/04:30am 26.6 WNW 15 21 1005.8 - 73.8 - - - - - - -
23/04:00am 26.3 WNW 12 19 1006.0 - 73.6 - - - - - - -
23/03:30am 26.0 WNW 12 17 1006.3 - 73.4 - - - - - - -
23/03:00am 25.9 NW 12 19 1006.8 - 73.2 Rain - - - - - -
23/02:30am 26.8 WNW 13 22 1006.9 - 72.6 - - - - - - -
23/02:00am 27.0 WNW 15 21 1007.2 - 72.6 - - - - - - -
23/01:30am 27.0 WNW 12 18 1007.4 - 72.6 - - - - - - -
23/01:00am 26.8 WNW 13 20 1007.6 - 72.6 - - - - - - -
23/12:30am 26.2 WNW 14 19 1007.9 - 72.6 - - - - - - -
23/12:00am 25.6 WNW 12 18 1008.4 - 72.6 Rain - - - - - -
 
Date/Time
CST
Temp
°C
Wind Pressure Rain since
9am
mm
Weather Cloud Vis
km
Sea
Height
m
Swell
Dir  Spd
kts
Gust
kts
hPa Trend Height
m
Period
s
Dir
22/11:30pm 25.4 W 12 18 1009.3 - 72.2 - - - - - - -
22/11:00pm 25.3 W 16 21 1009.9 - 71.2 - - - - - - -
22/10:30pm 25.5 W 19 26 1009.8 - 69.0 - - - - - - -
22/10:04pm 25.9 WNW 18 30 1009.4 - 65.0 - - - - - - -
22/10:00pm 25.9 WNW 17 24 1009.5 - 64.8 - - - - - - -
22/09:30pm 25.4 W 18 25 1009.4 - 61.8 - - - - - - -
22/09:00pm 25.6 WNW 13 21 1009.1 - 59.8 Rain - - - - - -
22/08:30pm 24.9 WNW 11 18 1008.9 - 57.6 - - - - - - -
22/08:00pm 25.1 WNW 14 23 1008.9 - 52.8 - - - - - - -
22/07:44pm 24.9 WNW 19 30 1008.8 - 46.4 - - - - - - -
22/07:37pm 25.7 WNW 12 29 1008.7 - 36.0 - - - - - - -
22/07:30pm 26.4 NW 9 13 1008.3 - 31.2 - - - - - - -
22/07:00pm 26.6 WNW 12 19 1008.3 - 31.2 - - - - - - -
22/06:30pm 26.5 NW 10 16 1007.7 - 31.2 - - - - - - -
22/06:00pm 26.4 NW 11 16 1007.3 - 31.2 - - - - - - -
22/05:30pm 26.8 WNW 12 20 1006.8 - 31.2 - - - - - - -
22/05:00pm 26.1 WNW 11 17 1007.1 - 31.2 - - - - - - -
22/04:30pm 25.2 WNW 12 19 1007.1 - 31.2 - - - - - - -
22/04:00pm 25.8 W 16 23 1006.8 - 29.8 - - - - - - -
22/03:30pm 25.4 NW 9 16 1006.9 - 21.6 - - - - - - -
22/03:00pm 25.2 NW 8 13 1007.0 - 9.6 Rain - - - - - -
22/02:30pm 27.2 NW 10 14 1007.1 - 6.2 - - - - - - -
22/02:00pm 27.5 NW 9 15 1007.3 - 6.2 - - - - - - -
22/01:30pm 31.3 WNW 9 13 1007.1 - 1.8 - - - - - - -
22/01:00pm 30.7 WNW 12 17 1007.8 - 1.8 - - - - - - -
22/12:30pm 30.4 WNW 10 14 1008.3 - 1.8 - - - - - - -
22/12:00pm 29.6 WNW 6 9 1008.8 - 1.8 Recent precip. - - - - - -
22/11:30am 31.4 W 8 13 1009.2 - 0.0 - - - - - - -
22/11:00am 30.8 W 7 10 1009.3 - 0.0 - - - - - - -
22/10:30am 30.7 W 9 11 1009.1 - 0.0 - - - - - - -
22/10:00am 30.3 W 10 13 1009.2 - 0.0 - - - - - - -
22/09:30am 29.7 W 8 12 1009.3 - 0.0 - - - - - - -
22/09:00am 29.5 W 8 11 1009.5 - 5.8 - - - - - - -
22/08:30am 29.6 WSW 7 13 1009.5 - 5.8 - - - - - - -
22/08:00am 28.6 W 7 9 1009.7 - 5.8 - - - - - - -
22/07:30am 28.4 WSW 9 12 1009.6 - 5.8 - - - - - - -
22/07:00am 28.4 WSW 9 12 1009.8 - 5.8 - - - - - - -
22/06:30am 28.2 WSW 8 13 1009.1 - 5.8 - - - - - - -
22/06:00am 28.0 W 8 11 1008.5 - 5.8 - - - - - - -
22/05:30am 28.1 W 8 11 1008.3 - 5.8 - - - - - - -
22/05:00am 28.0 WSW 9 12 1008.0 - 5.8 - - - - - - -

Other Formats:

Comma delimited format used in spreadsheet applications
http://www.bom.gov.au/fwo/IDD60701/IDD60701.94108.axf

JavaScript Object Notation format (JSON) in row-major order
http://www.bom.gov.au/fwo/IDD60701/IDD60701.94108.json